createdAt,value
2022-11-14T00:01:35.017Z,3.60
2022-11-14T00:04:56.126Z,3.54
2022-11-14T00:08:20.981Z,3.52
2022-11-14T00:11:42.067Z,3.51
2022-11-14T00:15:03.075Z,3.55
2022-11-14T00:18:24.248Z,3.51
2022-11-14T00:21:45.335Z,3.51
2022-11-14T00:25:07.191Z,3.51
2022-11-14T00:28:28.655Z,3.52
2022-11-14T00:31:49.752Z,3.52
2022-11-14T00:35:10.479Z,3.55
2022-11-14T00:38:31.465Z,3.56
2022-11-14T00:41:52.508Z,3.56
2022-11-14T00:45:13.398Z,3.62
2022-11-14T00:48:34.185Z,3.69
2022-11-14T00:51:54.875Z,3.76
2022-11-14T00:55:16.384Z,3.79
2022-11-14T00:58:37.116Z,3.78
2022-11-14T01:01:58.239Z,3.81
2022-11-14T01:05:19.328Z,3.84
2022-11-14T01:08:40.896Z,3.88
2022-11-14T01:12:01.653Z,3.95
2022-11-14T01:15:22.416Z,4.05
2022-11-14T01:18:49.961Z,4.13
2022-11-14T01:22:11.115Z,4.18
2022-11-14T01:25:36.387Z,4.21
2022-11-14T01:28:57.199Z,4.24
2022-11-14T01:32:17.924Z,4.28
2022-11-14T01:35:38.873Z,4.28
2022-11-14T01:38:59.996Z,4.16
2022-11-14T01:42:27.273Z,4.12
2022-11-14T01:45:48.229Z,4.13
2022-11-14T01:49:14.598Z,4.03
2022-11-14T01:52:37.257Z,3.92
2022-11-14T01:56:01.085Z,3.91
2022-11-14T01:59:25.160Z,3.89
2022-11-14T02:02:46.014Z,3.89
2022-11-14T02:06:09.895Z,3.92
2022-11-14T02:09:35.890Z,3.90
2022-11-14T02:12:56.846Z,3.84
2022-11-14T02:16:17.698Z,3.85
2022-11-14T02:19:50.802Z,3.88
2022-11-14T02:23:12.155Z,3.89
2022-11-14T02:26:36.734Z,3.86
2022-11-14T02:30:08.580Z,3.88
2022-11-14T02:33:29.473Z,3.91
2022-11-14T02:36:50.178Z,3.97
2022-11-14T02:40:12.467Z,3.97
2022-11-14T02:43:33.484Z,3.99
2022-11-14T02:46:54.380Z,4.00
2022-11-14T02:50:15.421Z,4.02
2022-11-14T02:53:36.790Z,4.02
2022-11-14T02:56:58.187Z,4.01
2022-11-14T03:00:19.440Z,4.04
2022-11-14T03:03:40.366Z,4.00
2022-11-14T03:07:01.099Z,4.02
2022-11-14T03:10:23.322Z,4.04
2022-11-14T03:13:44.218Z,4.04
2022-11-14T03:17:04.946Z,4.05
2022-11-14T03:20:25.865Z,4.06
2022-11-14T03:23:47.330Z,4.05
2022-11-14T03:27:08.580Z,4.05
2022-11-14T03:30:29.439Z,4.07
2022-11-14T03:33:50.004Z,4.01
2022-11-14T03:37:10.843Z,3.98
2022-11-14T03:40:31.553Z,3.93
2022-11-14T03:43:52.324Z,3.97
2022-11-14T03:47:12.987Z,3.97
2022-11-14T03:50:35.672Z,3.99
2022-11-14T03:53:56.588Z,3.97
2022-11-14T03:57:25.928Z,3.94
2022-11-14T04:00:46.907Z,3.93
2022-11-14T04:04:08.278Z,3.87
2022-11-14T04:07:29.358Z,3.86
2022-11-14T04:10:50.586Z,3.84
2022-11-14T04:14:11.479Z,3.82
2022-11-14T04:17:37.028Z,3.79
2022-11-14T04:21:00.814Z,3.79
2022-11-14T04:24:21.769Z,3.81
2022-11-14T04:27:43.451Z,3.78
2022-11-14T04:31:04.296Z,3.77
2022-11-14T04:34:25.216Z,3.78
2022-11-14T04:37:46.187Z,3.77
2022-11-14T04:41:06.982Z,3.80
2022-11-14T04:44:27.646Z,3.81
2022-11-14T04:47:48.441Z,3.80
2022-11-14T04:51:09.112Z,3.79
2022-11-14T04:54:29.991Z,3.77
2022-11-14T04:57:56.111Z,3.77
2022-11-14T05:01:16.919Z,3.81
2022-11-14T05:04:39.209Z,3.80
2022-11-14T05:07:59.918Z,3.80
2022-11-14T05:11:26.589Z,3.77
2022-11-14T05:14:50.152Z,3.72
2022-11-14T05:18:11.022Z,3.72
2022-11-14T05:21:33.672Z,3.67
2022-11-14T05:24:54.774Z,3.67
2022-11-14T05:28:16.110Z,3.65
2022-11-14T05:31:36.825Z,3.60
2022-11-14T05:34:57.480Z,3.53
2022-11-14T05:38:18.227Z,3.52
2022-11-14T05:41:39.262Z,3.53
2022-11-14T05:45:00.329Z,3.52
2022-11-14T05:48:21.411Z,3.47
2022-11-14T05:51:42.179Z,3.47
2022-11-14T05:55:03.220Z,3.46
2022-11-14T05:58:24.422Z,3.44
2022-11-14T06:01:45.481Z,3.43
2022-11-14T06:05:07.068Z,3.45
2022-11-14T06:08:29.981Z,3.48
2022-11-14T06:11:51.315Z,3.47
2022-11-14T06:15:12.758Z,3.49
2022-11-14T06:18:34.723Z,3.52
2022-11-14T06:21:55.584Z,3.28
2022-11-14T06:25:16.599Z,3.58
2022-11-14T06:28:37.873Z,3.59
2022-11-14T06:31:58.607Z,3.66
2022-11-14T06:35:19.253Z,3.60
2022-11-14T06:38:41.105Z,3.74
2022-11-14T06:42:01.996Z,3.78
2022-11-14T06:45:22.957Z,3.84
2022-11-14T06:48:44.873Z,3.90
2022-11-14T06:52:06.138Z,3.93
2022-11-14T06:55:27.906Z,3.97
2022-11-14T07:02:16.434Z,4.08
2022-11-14T07:05:40.233Z,4.09
2022-11-14T07:09:02.859Z,4.18
2022-11-14T07:12:23.903Z,4.10
2022-11-14T07:15:54.556Z,4.28
2022-11-14T07:19:17.733Z,4.45
2022-11-14T07:22:39.373Z,4.48
2022-11-14T07:26:07.064Z,4.58
2022-11-14T07:29:28.576Z,4.59
2022-11-14T07:32:57.561Z,4.86
2022-11-14T07:36:18.756Z,4.87
2022-11-14T07:39:40.009Z,4.82
2022-11-14T07:43:01.597Z,4.81
2022-11-14T07:46:22.615Z,4.88
2022-11-14T07:49:44.335Z,5.10
2022-11-14T07:53:06.624Z,5.22
2022-11-14T07:56:27.903Z,4.71
2022-11-14T07:59:49.417Z,5.18
2022-11-14T08:03:11.080Z,5.20
2022-11-14T08:06:32.074Z,5.34
2022-11-14T08:09:54.519Z,5.23
2022-11-14T08:13:33.210Z,5.46
2022-11-14T08:16:54.472Z,5.59
2022-11-14T08:20:17.714Z,5.48
2022-11-14T08:23:38.887Z,5.63
2022-11-14T08:27:00.003Z,5.70
2022-11-14T08:30:21.316Z,5.91
2022-11-14T08:33:42.447Z,5.93
2022-11-14T08:37:03.514Z,5.92
2022-11-14T08:40:25.052Z,5.84
2022-11-14T08:43:46.400Z,5.92
2022-11-14T08:47:07.695Z,5.88
2022-11-14T08:50:28.958Z,5.88
2022-11-14T08:53:52.408Z,5.81
2022-11-14T08:57:15.355Z,5.72
2022-11-14T09:00:36.873Z,5.72
2022-11-14T09:04:00.008Z,5.62
2022-11-14T09:07:22.049Z,5.59
2022-11-14T09:10:43.160Z,5.63
2022-11-14T09:14:04.427Z,5.63
2022-11-14T09:17:25.673Z,5.59
2022-11-14T09:20:46.950Z,5.64
2022-11-14T09:24:08.489Z,5.82
2022-11-14T09:27:29.875Z,5.69
2022-11-14T09:30:51.986Z,5.76
2022-11-14T09:37:37.871Z,5.63
2022-11-14T09:41:27.300Z,5.45
2022-11-14T09:45:00.083Z,5.58
2022-11-14T09:48:25.986Z,5.54
2022-11-14T09:51:54.519Z,5.67
2022-11-14T09:55:35.245Z,5.74
2022-11-14T09:58:58.093Z,5.93
2022-11-14T10:02:28.781Z,6.03
2022-11-14T10:06:11.372Z,5.82
2022-11-14T10:09:38.465Z,5.93
2022-11-14T10:13:29.923Z,5.92
2022-11-14T10:17:00.104Z,6.07
2022-11-14T10:20:42.562Z,6.03
2022-11-14T10:24:18.953Z,5.94
2022-11-14T10:27:55.896Z,6.03
2022-11-14T10:31:46.342Z,6.23
2022-11-14T10:35:44.266Z,6.29
2022-11-14T10:39:13.842Z,6.42
2022-11-14T10:42:40.207Z,6.56
2022-11-14T10:46:09.898Z,6.38
2022-11-14T10:49:33.226Z,6.62
2022-11-14T10:53:00.449Z,6.98
2022-11-14T10:56:21.666Z,7.54
2022-11-14T10:59:43.383Z,7.50
2022-11-14T11:03:04.603Z,7.54
2022-11-14T11:06:27.672Z,7.23
2022-11-14T11:10:18.435Z,7.17
2022-11-14T11:13:53.989Z,7.14
2022-11-14T11:17:15.657Z,7.27
2022-11-14T11:20:41.569Z,7.54
2022-11-14T11:24:02.568Z,7.71
2022-11-14T11:27:27.051Z,8.08
2022-11-14T11:30:59.491Z,8.10
2022-11-14T11:34:26.986Z,8.39
2022-11-14T11:37:55.027Z,8.96
2022-11-14T11:42:07.643Z,8.59
2022-11-14T11:45:19.852Z,8.18
2022-11-14T11:48:41.151Z,8.11
2022-11-14T11:52:06.370Z,8.15
2022-11-14T11:55:34.916Z,8.13
2022-11-14T11:59:01.208Z,8.14
2022-11-14T12:02:25.083Z,8.46
2022-11-14T12:06:07.519Z,8.52
2022-11-14T12:10:03.617Z,8.54
2022-11-14T12:13:50.105Z,9.09
2022-11-14T12:17:55.981Z,9.25
2022-11-14T12:21:55.699Z,9.02
2022-11-14T12:25:40.184Z,8.71
2022-11-14T12:29:33.496Z,8.59
2022-11-14T12:33:02.260Z,8.44
2022-11-14T12:36:29.245Z,8.42
2022-11-14T12:40:00.729Z,8.39
2022-11-14T12:43:45.504Z,8.28
2022-11-14T12:47:06.598Z,8.23
2022-11-14T12:50:41.093Z,8.19
2022-11-14T12:54:02.566Z,8.11
2022-11-14T12:58:07.968Z,8.07
2022-11-14T13:01:37.614Z,8.01
2022-11-14T13:05:15.040Z,8.00
2022-11-14T13:09:23.368Z,7.95
2022-11-14T13:13:23.113Z,7.93
2022-11-14T13:17:03.103Z,7.74
2022-11-14T13:20:51.382Z,7.78
2022-11-14T13:24:16.309Z,7.72
2022-11-14T13:28:06.058Z,7.64
2022-11-14T13:31:20.707Z,7.57
2022-11-14T13:35:04.424Z,7.44
2022-11-14T13:38:37.113Z,7.37
2022-11-14T13:42:08.795Z,7.29
2022-11-14T13:45:44.813Z,7.22
2022-11-14T13:49:22.621Z,7.04
2022-11-14T13:52:46.183Z,7.03
2022-11-14T13:56:20.484Z,6.98
2022-11-14T14:00:03.198Z,7.07
2022-11-14T14:03:36.277Z,7.16
2022-11-14T14:07:03.100Z,7.23
2022-11-14T14:10:39.075Z,7.29
2022-11-14T14:14:12.231Z,7.32
2022-11-14T14:17:56.573Z,7.28
2022-11-14T14:21:30.972Z,7.13
2022-11-14T14:25:07.773Z,7.18
2022-11-14T14:28:53.595Z,7.05
2022-11-14T14:32:17.132Z,7.03
2022-11-14T14:35:40.930Z,7.00
2022-11-14T14:39:25.977Z,6.92
2022-11-14T14:42:49.349Z,6.87
2022-11-14T14:46:10.532Z,6.80
2022-11-14T14:49:36.457Z,6.75
2022-11-14T14:52:59.247Z,6.62
2022-11-14T14:56:24.842Z,6.74
2022-11-14T14:59:46.268Z,6.78
2022-11-14T15:03:10.480Z,6.76
2022-11-14T15:06:36.760Z,6.70
2022-11-14T15:10:02.205Z,6.67
2022-11-14T15:13:24.187Z,6.52
2022-11-14T15:16:46.789Z,6.50
2022-11-14T15:20:29.612Z,6.40
2022-11-14T15:24:02.063Z,6.35
2022-11-14T15:27:22.795Z,6.25
2022-11-14T15:30:57.015Z,6.27
2022-11-14T15:34:38.259Z,6.29
2022-11-14T15:38:43.193Z,6.29
2022-11-14T15:42:14.035Z,6.32
2022-11-14T15:45:43.982Z,6.28
2022-11-14T15:49:08.558Z,6.32
2022-11-14T15:52:40.312Z,6.30
2022-11-14T15:56:01.258Z,6.25
2022-11-14T15:59:22.180Z,6.28
2022-11-14T16:02:57.058Z,6.31
2022-11-14T16:06:18.071Z,6.22
2022-11-14T16:09:39.269Z,6.21
2022-11-14T16:13:00.305Z,6.16
2022-11-14T16:16:21.752Z,6.13
2022-11-14T16:19:43.162Z,6.07
2022-11-14T16:23:05.304Z,5.93
2022-11-14T16:26:26.448Z,5.93
2022-11-14T16:29:47.616Z,5.84
2022-11-14T16:33:09.803Z,5.84
2022-11-14T16:36:32.057Z,5.75
2022-11-14T16:39:53.259Z,5.72
2022-11-14T16:43:14.593Z,5.81
2022-11-14T16:46:38.255Z,5.78
2022-11-14T16:50:00.304Z,5.82
2022-11-14T16:53:21.795Z,5.83
2022-11-14T16:56:43.495Z,5.78
2022-11-14T17:00:10.856Z,5.78
2022-11-14T17:03:33.224Z,5.77
2022-11-14T17:06:54.662Z,5.79
2022-11-14T17:10:19.690Z,5.76
2022-11-14T17:13:41.088Z,5.71
2022-11-14T17:17:02.009Z,5.68
2022-11-14T17:20:23.755Z,5.72
2022-11-14T17:23:45.225Z,5.72
2022-11-14T17:27:06.826Z,5.74
2022-11-14T17:30:28.179Z,5.73
2022-11-14T17:33:54.498Z,5.77
2022-11-14T17:37:15.860Z,5.74
2022-11-14T17:40:38.316Z,5.74
2022-11-14T17:44:02.572Z,5.73
2022-11-14T17:47:23.560Z,5.72
2022-11-14T17:50:44.603Z,5.69
2022-11-14T17:54:05.549Z,5.69
2022-11-14T17:57:27.158Z,5.74
2022-11-14T18:00:48.548Z,5.73
2022-11-14T18:04:10.350Z,5.74
2022-11-14T18:07:33.154Z,5.68
2022-11-14T18:10:55.135Z,5.70
2022-11-14T18:14:15.897Z,5.70
2022-11-14T18:17:37.209Z,5.76
2022-11-14T18:20:59.455Z,5.79
2022-11-14T18:24:21.933Z,5.72
2022-11-14T18:27:43.427Z,5.73
2022-11-14T18:31:07.407Z,5.67
2022-11-14T18:34:28.425Z,5.63
2022-11-14T18:37:49.637Z,5.61
2022-11-14T18:41:14.420Z,5.63
2022-11-14T18:44:35.868Z,5.63
2022-11-14T18:47:57.819Z,5.59
2022-11-14T18:51:21.965Z,5.65
2022-11-14T18:54:43.938Z,5.61
2022-11-14T18:58:04.925Z,5.49
2022-11-14T19:01:29.680Z,5.42
2022-11-14T19:04:50.800Z,5.43
2022-11-14T19:08:11.541Z,5.40
2022-11-14T19:11:51.379Z,5.42
2022-11-14T19:15:12.939Z,5.44
2022-11-14T19:18:34.243Z,5.44
2022-11-14T19:21:56.973Z,5.45
2022-11-14T19:25:21.439Z,5.43
2022-11-14T19:28:42.887Z,5.45
2022-11-14T19:32:04.457Z,5.44
2022-11-14T19:35:26.083Z,5.44
2022-11-14T19:38:47.341Z,5.48
2022-11-14T19:42:08.769Z,5.48
2022-11-14T19:45:33.888Z,5.46
2022-11-14T19:48:56.989Z,5.43
2022-11-14T19:52:18.395Z,5.41
2022-11-14T19:55:40.080Z,5.43
2022-11-14T19:59:02.791Z,5.44
2022-11-14T20:02:25.912Z,5.44
2022-11-14T20:05:47.062Z,5.49
2022-11-14T20:09:09.589Z,5.48
2022-11-14T20:12:32.169Z,5.50
2022-11-14T20:15:53.764Z,5.50
2022-11-14T20:19:16.203Z,5.50
2022-11-14T20:22:37.246Z,5.50
2022-11-14T20:25:59.262Z,5.46
2022-11-14T20:29:20.226Z,5.49
2022-11-14T20:32:41.616Z,5.45
2022-11-14T20:36:07.592Z,5.40
2022-11-14T20:39:28.647Z,5.39
2022-11-14T20:42:50.343Z,5.41
2022-11-14T20:46:14.139Z,5.38
2022-11-14T20:49:35.362Z,5.44
2022-11-14T20:52:56.240Z,5.52
2022-11-14T20:56:17.616Z,5.53
2022-11-14T20:59:39.232Z,5.51
2022-11-14T21:03:00.354Z,5.58
2022-11-14T21:06:20.949Z,5.58
2022-11-14T21:09:41.893Z,5.50
2022-11-14T21:13:26.180Z,5.48
2022-11-14T21:16:47.085Z,5.43
2022-11-14T21:20:09.418Z,5.44
2022-11-14T21:23:31.141Z,5.43
2022-11-14T21:26:52.213Z,5.46
2022-11-14T21:30:13.139Z,5.41
2022-11-14T21:33:34.568Z,5.39
2022-11-14T21:36:55.599Z,5.43
2022-11-14T21:40:16.858Z,5.35
2022-11-14T21:43:38.205Z,5.36
2022-11-14T21:46:59.249Z,5.30
2022-11-14T21:50:22.250Z,5.31
2022-11-14T21:53:44.378Z,5.35
2022-11-14T21:57:09.723Z,5.32
2022-11-14T22:00:32.472Z,5.38
2022-11-14T22:04:11.795Z,5.42
2022-11-14T22:07:32.571Z,5.43
2022-11-14T22:10:59.662Z,5.44
2022-11-14T22:14:20.429Z,5.43
2022-11-14T22:17:43.028Z,5.44
2022-11-14T22:21:04.229Z,5.40
2022-11-14T22:24:25.447Z,5.33
2022-11-14T22:27:46.879Z,5.36
2022-11-14T22:31:29.968Z,5.33
2022-11-14T22:34:50.766Z,5.30
2022-11-14T22:38:11.773Z,5.33
2022-11-14T22:41:33.648Z,5.28
2022-11-14T22:44:55.045Z,5.31
2022-11-14T22:48:16.077Z,5.29
2022-11-14T22:51:36.885Z,5.30
2022-11-14T22:54:57.890Z,5.26
2022-11-14T22:58:19.234Z,5.27
2022-11-14T23:01:40.136Z,5.27
2022-11-14T23:05:01.024Z,5.23
2022-11-14T23:08:22.023Z,5.26
2022-11-14T23:11:44.712Z,5.22
2022-11-14T23:15:06.138Z,5.21
2022-11-14T23:18:27.228Z,5.21
2022-11-14T23:21:48.039Z,5.21
2022-11-14T23:25:09.168Z,5.19
2022-11-14T23:28:31.109Z,5.24
2022-11-14T23:31:52.595Z,5.25
2022-11-14T23:35:13.860Z,5.23
2022-11-14T23:38:34.859Z,5.22
2022-11-14T23:41:55.706Z,5.23
2022-11-14T23:45:16.629Z,5.24
2022-11-14T23:48:37.603Z,5.24
2022-11-14T23:51:58.692Z,5.22
2022-11-14T23:55:19.584Z,5.23
2022-11-14T23:58:41.152Z,5.22
